Time;durP1;ratioP1;P1;durP2;ratioP2;P2;SDS_P1;SDS_P2;PMS_P1;PMS_P2;Temp;Humidity;BMP_temperature;BMP_pressure;BME280_temperature;BME280_humidity;BME280_pressure;Samples;Min_cycle;Max_cycle;Signal;HPM_P1;HPM_P2
2023/07/02 00:00:40;;;;;;;2.50;0.55;;;;;;;20.23;49.73;96883.25;10513351;28;20043;-75
2023/07/02 00:06:21;;;;;;;2.10;0.50;;;;;;;20.06;51.37;96884.38;10530670;28;20059;-72
2023/07/02 00:11:43;;;;;;;1.20;0.50;;;;;;;19.93;52.13;96883.44;10542478;28;20051;-75
2023/07/02 00:17:04;;;;;;;1.13;0.50;;;;;;;19.81;53.21;96888.91;10498977;28;20040;-75
2023/07/02 00:22:25;;;;;;;1.60;0.40;;;;;;;19.68;54.11;96876.63;10499111;28;20071;-75
2023/07/02 00:27:45;;;;;;;0.68;0.38;;;;;;;19.53;55.38;96889.06;10526372;28;20087;-74
2023/07/02 00:33:06;;;;;;;2.45;0.32;;;;;;;19.39;56.54;96876.06;10526161;28;20123;-75
2023/07/02 00:38:27;;;;;;;0.80;0.30;;;;;;;19.31;58.63;96886.53;10512228;28;20115;-74
2023/07/02 00:43:48;;;;;;;2.42;0.40;;;;;;;19.19;59.16;96886.28;10525748;28;20036;-75
2023/07/02 00:49:09;;;;;;;1.20;0.40;;;;;;;19.12;59.89;96883.34;10525613;28;20067;-72
2023/07/02 00:54:30;;;;;;;0.60;0.40;;;;;;;18.98;61.06;96879.50;10511152;28;20480;-74
2023/07/02 00:59:52;;;;;;;2.97;0.35;;;;;;;18.80;61.85;96882.66;10524484;28;20063;-75
2023/07/02 01:05:14;;;;;;;0.47;0.28;;;;;;;18.65;63.28;96873.16;10483434;28;20059;-74
2023/07/02 01:10:35;;;;;;;1.60;0.35;;;;;;;18.57;64.09;96872.94;10511386;28;20448;-74
2023/07/02 01:15:56;;;;;;;0.50;0.30;;;;;;;18.44;65.00;96871.97;10525362;28;20121;-75
2023/07/02 01:21:18;;;;;;;1.70;0.40;;;;;;;18.31;66.36;96882.25;10524347;28;20131;-74
2023/07/02 01:26:39;;;;;;;0.73;0.40;;;;;;;18.25;67.28;96872.91;10510685;28;20147;-74
2023/07/02 01:31:59;;;;;;;2.20;0.50;;;;;;;18.18;68.05;96876.97;10496463;28;20130;-75
2023/07/02 01:37:20;;;;;;;1.67;0.60;;;;;;;18.12;68.92;96883.19;10496186;28;20489;-74
2023/07/02 01:42:41;;;;;;;0.82;0.40;;;;;;;18.09;68.95;96870.41;10510848;28;20036;-74
2023/07/02 01:48:01;;;;;;;3.80;0.45;;;;;;;18.10;69.56;96877.50;10510950;28;20444;-74
2023/07/02 01:53:22;;;;;;;1.77;0.47;;;;;;;18.13;69.55;96878.25;10523889;28;20489;-74
2023/07/02 01:58:43;;;;;;;1.02;0.40;;;;;;;18.09;70.01;96869.69;10526104;28;20535;-74
2023/07/02 02:04:04;;;;;;;1.77;0.40;;;;;;;18.12;70.42;96871.91;10509852;28;20098;-74
2023/07/02 02:09:28;;;;;;;2.17;0.60;;;;;;;18.19;70.46;96875.59;10509312;28;20111;-74
2023/07/02 02:14:49;;;;;;;1.27;0.45;;;;;;;18.19;70.58;96878.41;10532754;28;20044;-74
2023/07/02 02:20:10;;;;;;;3.05;0.40;;;;;;;18.17;70.20;96876.25;10531237;28;20083;-74
2023/07/02 02:25:30;;;;;;;1.63;0.50;;;;;;;18.12;70.68;96882.47;10531342;28;20059;-73
2023/07/02 02:30:51;;;;;;;1.88;0.50;;;;;;;18.05;70.85;96878.06;10530870;28;20111;-74
2023/07/02 02:36:13;;;;;;;1.67;0.60;;;;;;;18.10;70.96;96882.44;10517193;28;20071;-74
2023/07/02 02:41:33;;;;;;;2.15;0.40;;;;;;;18.11;71.04;96881.03;10502687;28;20077;-73
2023/07/02 02:46:54;;;;;;;1.63;0.60;;;;;;;18.07;71.39;96880.94;10516443;28;20043;-73
2023/07/02 02:52:16;;;;;;;1.55;0.60;;;;;;;18.05;71.59;96889.34;10502935;28;20067;-74
2023/07/02 02:57:37;;;;;;;1.30;0.50;;;;;;;18.06;71.35;96890.81;10529843;28;20435;-74
2023/07/02 03:02:58;;;;;;;1.92;0.63;;;;;;;18.09;71.60;96895.13;10529791;28;20214;-74
2023/07/02 03:08:19;;;;;;;2.13;0.50;;;;;;;18.19;71.56;96893.25;10529597;28;20068;-74
2023/07/02 03:13:40;;;;;;;2.47;0.70;;;;;;;18.23;71.30;96898.28;10515590;28;20060;-74
2023/07/02 03:19:01;;;;;;;2.85;0.50;;;;;;;18.31;71.39;96892.81;10544600;28;20068;-74
2023/07/02 03:24:21;;;;;;;1.67;0.68;;;;;;;18.36;71.15;96900.00;10528040;28;20444;-74
2023/07/02 03:29:42;;;;;;;1.20;0.52;;;;;;;18.37;70.80;96909.22;10514812;28;20115;-74
2023/07/02 03:35:03;;;;;;;1.23;0.60;;;;;;;18.42;70.68;96905.78;10528554;28;20382;-74
2023/07/02 03:40:24;;;;;;;1.92;0.50;;;;;;;18.49;70.11;96912.31;10528423;28;20044;-74
2023/07/02 03:45:44;;;;;;;1.55;0.70;;;;;;;18.56;70.12;96900.50;10500077;28;20063;-73
2023/07/02 03:51:05;;;;;;;2.97;0.70;;;;;;;18.59;69.77;96910.44;10514026;28;20426;-74
2023/07/02 03:56:26;;;;;;;1.33;0.70;;;;;;;18.52;69.80;96922.97;10514013;28;20509;-74
2023/07/02 04:01:47;;;;;;;1.23;0.60;;;;;;;18.56;69.71;96917.44;10513337;28;20102;-74
2023/07/02 04:07:07;;;;;;;1.70;0.70;;;;;;;18.56;69.71;96930.84;10499655;28;20145;-74
2023/07/02 04:12:28;;;;;;;4.60;0.65;;;;;;;18.52;69.80;96934.28;10513062;28;20320;-73
2023/07/02 04:17:48;;;;;;;1.50;0.65;;;;;;;18.51;69.60;96935.69;10499129;28;20469;-74
2023/07/02 04:23:09;;;;;;;3.13;0.60;;;;;;;18.50;69.65;96942.72;10512450;28;20064;-75
2023/07/02 04:28:29;;;;;;;1.98;0.65;;;;;;;18.43;70.30;96943.97;10512506;28;20560;-73
2023/07/02 04:33:50;;;;;;;2.33;0.70;;;;;;;18.46;70.47;96948.28;10512348;28;20047;-74
2023/07/02 04:39:11;;;;;;;2.80;0.98;;;;;;;18.53;70.42;96955.53;10512047;28;20162;-74
2023/07/02 04:44:31;;;;;;;3.17;0.95;;;;;;;18.60;70.58;96957.09;10526116;28;20116;-74
2023/07/02 04:49:52;;;;;;;1.83;0.68;;;;;;;18.60;70.78;96962.75;10541270;28;20090;-74
2023/07/02 04:55:13;;;;;;;1.40;0.80;;;;;;;18.56;71.22;96973.97;10541159;28;20071;-74
2023/07/02 05:00:33;;;;;;;1.88;0.60;;;;;;;18.64;71.17;96967.06;10511880;28;20071;-74
2023/07/02 05:05:54;;;;;;;2.58;0.90;;;;;;;18.79;71.08;96963.91;10484076;28;20532;-74
2023/07/02 05:11:14;;;;;;;4.80;0.63;;;;;;;18.95;70.59;96952.25;10483748;28;20036;-74
2023/07/02 05:16:35;;;;;;;1.83;0.70;;;;;;;19.09;70.22;96963.88;10483784;28;20036;-74
2023/07/02 05:21:56;;;;;;;1.65;0.80;;;;;;;19.76;69.18;96958.19;10469992;28;20036;-75
2023/07/02 05:27:16;;;;;;;0.90;0.60;;;;;;;20.76;67.76;96943.63;10483403;28;20083;-74
2023/07/02 05:32:39;;;;;;;2.53;0.95;;;;;;;21.28;65.16;96955.00;10469385;28;20040;-74
2023/07/02 05:38:00;;;;;;;3.17;0.70;;;;;;;21.05;63.85;96950.41;10469913;28;20072;-75
2023/07/02 05:43:20;;;;;;;2.15;0.80;;;;;;;20.88;63.38;96960.09;10469333;28;20520;-74
2023/07/02 05:48:41;;;;;;;3.00;1.10;;;;;;;20.85;62.46;96965.03;10489823;28;20091;-74
2023/07/02 05:54:02;;;;;;;2.08;0.93;;;;;;;21.56;61.34;96965.28;10491534;28;20071;-74
2023/07/02 05:59:23;;;;;;;1.70;0.95;;;;;;;22.31;60.10;96980.31;10506213;28;20427;-74
2023/07/02 06:04:43;;;;;;;5.85;1.08;;;;;;;22.67;58.56;96973.50;10509890;28;20105;-75
2023/07/02 06:10:05;;;;;;;1.77;0.88;;;;;;;23.05;57.25;96976.66;10532613;28;20059;-74
2023/07/02 06:15:25;;;;;;;1.17;0.70;;;;;;;23.13;54.38;96985.25;10518376;28;20139;-75
2023/07/02 06:20:46;;;;;;;2.78;1.10;;;;;;;23.42;52.43;96996.78;10532362;28;20091;-75
2023/07/02 06:26:08;;;;;;;1.45;0.90;;;;;;;23.68;51.70;96993.38;10517753;28;20586;-75
2023/07/02 06:31:28;;;;;;;4.05;0.98;;;;;;;24.03;49.89;96991.38;10503838;28;20040;-74
2023/07/02 06:36:49;;;;;;;4.22;1.13;;;;;;;25.76;47.62;96994.16;10531578;28;20047;-75
2023/07/02 06:42:09;;;;;;;3.00;1.00;;;;;;;25.83;46.44;96991.97;10531371;28;20072;-74
2023/07/02 06:47:32;;;;;;;;;;;;;;;25.85;45.07;96998.41;10532059;28;20055;-75
2023/07/02 06:52:53;;;;;;;1.45;0.80;;;;;;;26.03;44.96;96988.31;10530782;28;20003;-75
2023/07/02 06:58:14;;;;;;;1.60;0.90;;;;;;;25.84;43.87;97001.97;10502880;28;20068;-75
2023/07/02 07:03:35;;;;;;;1.45;0.80;;;;;;;24.80;44.52;97016.44;10516153;28;20491;-75
2023/07/02 07:08:56;;;;;;;1.83;0.90;;;;;;;24.05;45.83;97017.03;10530436;28;20068;-75
2023/07/02 07:14:16;;;;;;;2.58;1.00;;;;;;;23.86;47.02;97024.81;10545314;28;20481;-75
2023/07/02 07:19:37;;;;;;;3.25;1.00;;;;;;;23.28;47.14;97025.19;10515526;28;20367;-74
2023/07/02 07:24:57;;;;;;;1.95;0.95;;;;;;;22.69;48.30;97033.28;10515921;28;20040;-73
2023/07/02 07:30:22;;;;;;;1.25;0.90;;;;;;;23.36;48.17;97025.25;10529509;28;20072;-75
2023/07/02 07:35:43;;;;;;;1.63;0.90;;;;;;;24.53;47.28;97035.69;10516661;28;20401;-75
2023/07/02 07:41:04;;;;;;;2.80;1.15;;;;;;;26.49;45.18;97025.25;10528944;28;20040;-75
2023/07/02 07:46:25;;;;;;;1.30;0.80;;;;;;;28.32;40.83;97033.47;10543940;28;20044;-75
2023/07/02 07:51:46;;;;;;;1.20;0.85;;;;;;;29.53;38.79;97035.84;10528438;28;20496;-75
2023/07/02 07:57:07;;;;;;;1.73;1.00;;;;;;;29.84;36.07;97028.06;10486466;28;20118;-74
2023/07/02 08:02:28;;;;;;;2.53;0.88;;;;;;;28.86;35.58;97031.25;10500147;28;20086;-75
2023/07/02 08:07:49;;;;;;;2.80;1.00;;;;;;;27.87;36.35;97037.59;10499362;28;20458;-74
2023/07/02 08:13:09;;;;;;;1.85;0.85;;;;;;;27.96;36.95;97032.47;10513866;28;20040;-74
2023/07/02 08:18:30;;;;;;;1.23;0.63;;;;;;;28.69;35.82;97034.38;10527061;28;20435;-74
2023/07/02 08:23:51;;;;;;;3.78;0.95;;;;;;;27.66;36.09;97045.72;10513437;28;20052;-75
2023/07/02 08:29:11;;;;;;;1.50;0.70;;;;;;;27.51;37.01;97043.75;10499127;28;20040;-75
2023/07/02 08:34:32;;;;;;;2.05;1.30;;;;;;;27.34;36.78;97041.03;10512950;28;20039;-75
2023/07/02 08:39:52;;;;;;;1.25;0.73;;;;;;;26.93;37.52;97040.66;10526776;28;20040;-74
2023/07/02 08:45:16;;;;;;;1.50;0.47;;;;;;;26.61;38.09;97058.78;10526111;28;20064;-75
2023/07/02 08:50:37;;;;;;;1.27;0.60;;;;;;;26.36;38.13;97060.34;10526138;28;20048;-74
2023/07/02 08:55:58;;;;;;;1.02;0.50;;;;;;;26.55;39.24;97047.41;10525747;28;20111;-75
2023/07/02 09:01:18;;;;;;;2.30;0.60;;;;;;;28.40;37.05;97041.97;10525743;28;20458;-74
2023/07/02 09:06:39;;;;;;;1.20;0.40;;;;;;;28.47;35.34;97064.13;10525616;28;20067;-74
2023/07/02 09:12:00;;;;;;;0.82;0.43;;;;;;;27.10;36.24;97056.28;10525666;28;20478;-75
2023/07/02 09:17:20;;;;;;;0.95;0.55;;;;;;;25.98;37.11;97064.13;10497615;28;20468;-75
2023/07/02 09:22:41;;;;;;;2.15;0.50;;;;;;;25.25;38.77;97057.13;10524396;28;20043;-75
2023/07/02 09:28:02;;;;;;;1.13;0.55;;;;;;;26.51;38.69;97056.69;10511404;28;20044;-75
2023/07/02 09:33:28;;;;;;;2.08;0.50;;;;;;;28.58;35.58;97050.34;10524932;28;20059;-74
2023/07/02 09:38:50;;;;;;;1.00;0.47;;;;;;;29.90;33.97;97042.31;10511182;28;20044;-74
2023/07/02 09:44:10;;;;;;;1.77;0.47;;;;;;;31.38;33.09;97046.19;10524681;28;20103;-74
2023/07/02 09:49:35;;;;;;;3.73;0.60;;;;;;;32.32;31.02;97044.31;10510750;28;20097;-74
2023/07/02 09:54:56;;;;;;;1.60;0.80;;;;;;;32.10;29.86;97045.66;10497191;28;20539;-74
2023/07/02 10:00:17;;;;;;;3.33;0.70;;;;;;;32.07;28.97;97040.72;10524414;28;20050;-75
2023/07/02 10:05:39;;;;;;;1.50;0.83;;;;;;;31.00;28.51;97039.22;10539493;28;20056;-74
2023/07/02 10:11:13;;;;;;;1.90;1.02;;;;;;;30.89;28.56;97035.16;10510765;28;20363;-75
2023/07/02 10:16:34;;;;;;;4.47;0.60;;;;;;;30.76;27.68;97043.38;10496414;28;20066;-74
2023/07/02 10:22:02;;;;;;;2.27;0.73;;;;;;;31.52;27.14;97042.22;10539324;28;20555;-75
2023/07/02 10:27:42;;;;;;;3.08;0.50;;;;;;;31.60;27.44;97042.72;10538591;28;20377;-75
2023/07/02 10:33:13;;;;;;;1.10;0.50;;;;;;;32.43;26.79;97044.75;10542556;28;20070;-74
2023/07/02 10:38:34;;;;;;;;;;;;;;;31.81;26.51;97047.94;10547189;28;20067;-74
2023/07/02 10:44:08;;;;;;;2.20;0.70;;;;;;;31.05;27.18;97052.03;10531489;28;19930;-74
2023/07/02 10:49:32;;;;;;;2.00;0.55;;;;;;;29.87;28.15;97043.13;10517997;28;20044;-74
2023/07/02 10:54:53;;;;;;;4.63;0.80;;;;;;;28.83;28.90;97053.53;10530932;28;20063;-74
2023/07/02 11:00:14;;;;;;;1.98;0.80;;;;;;;28.31;29.56;97044.25;10545722;28;20067;-74
2023/07/02 11:05:37;;;;;;;1.45;0.80;;;;;;;27.84;29.82;97041.94;10545254;28;20052;-74
2023/07/02 11:11:23;;;;;;;1.08;0.65;;;;;;;28.45;29.77;97049.06;10545123;28;20044;-74
2023/07/02 11:16:44;;;;;;;3.80;1.15;;;;;;;28.98;29.46;97051.88;10515828;28;20036;-74
2023/07/02 11:22:05;;;;;;;1.88;0.93;;;;;;;30.17;27.45;97047.56;10515548;28;20148;-74
2023/07/02 11:27:27;;;;;;;2.35;0.85;;;;;;;30.59;26.68;97053.84;10529842;28;20051;-74
2023/07/02 11:32:52;;;;;;;1.98;0.85;;;;;;;30.72;26.30;97058.59;10529381;28;20036;-74
2023/07/02 11:38:13;;;;;;;2.33;1.05;;;;;;;29.95;26.12;97065.25;10501131;28;20458;-74
2023/07/02 11:43:34;;;;;;;1.83;0.98;;;;;;;29.39;27.14;97067.72;10528147;28;20067;-74
2023/07/02 11:48:55;;;;;;;1.92;1.05;;;;;;;29.07;27.77;97076.16;10500554;28;20040;-74
2023/07/02 11:54:16;;;;;;;1.65;0.93;;;;;;;30.05;28.15;97079.44;10528635;28;20043;-74
2023/07/02 11:59:37;;;;;;;1.27;0.50;;;;;;;30.88;27.75;97082.72;10514462;28;20044;-74
2023/07/02 12:04:58;;;;;;;1.20;0.80;;;;;;;30.89;27.80;97084.16;10527736;28;20382;-74
2023/07/02 12:10:19;;;;;;;4.18;1.40;;;;;;;30.47;28.07;97087.19;10514241;28;20044;-74
2023/07/02 12:15:39;;;;;;;6.13;1.38;;;;;;;31.04;27.12;97074.38;10527829;28;20044;-73
2023/07/02 12:21:00;;;;;;;2.40;1.40;;;;;;;31.14;26.63;97079.19;10485712;28;20109;-72
2023/07/02 12:26:21;;;;;;;7.45;1.70;;;;;;;30.56;26.41;97075.50;10513317;28;20067;-72
2023/07/02 12:31:41;;;;;;;3.57;1.30;;;;;;;30.37;26.68;97073.03;10527195;28;20538;-72
2023/07/02 12:37:03;;;;;;;3.72;1.30;;;;;;;30.35;26.33;97081.72;10526636;28;20047;-72
2023/07/02 12:42:24;;;;;;;3.63;1.80;;;;;;;29.99;26.05;97076.69;10512691;28;20118;-72
2023/07/02 12:47:45;;;;;;;4.70;1.83;;;;;;;29.21;26.29;97092.44;10512639;28;20048;-72
2023/07/02 12:53:06;;;;;;;3.80;1.70;;;;;;;28.60;26.36;97089.78;10541278;28;20142;-72
2023/07/02 12:58:26;;;;;;;6.40;1.75;;;;;;;28.49;26.40;97089.22;10511989;28;20123;-72
2023/07/02 13:03:47;;;;;;;1.85;1.30;;;;;;;28.64;26.42;97101.91;10525542;28;20083;-72
2023/07/02 13:09:08;;;;;;;3.17;0.98;;;;;;;28.54;26.61;97104.91;10497854;28;20047;-72
2023/07/02 13:14:29;;;;;;;2.30;1.00;;;;;;;29.12;27.17;97087.56;10540556;28;20071;-72
2023/07/02 13:19:50;;;;;;;2.17;0.77;;;;;;;29.13;26.04;97081.06;10497487;28;20040;-72
2023/07/02 13:25:10;;;;;;;2.75;0.75;;;;;;;28.60;25.98;97090.50;10525258;28;20090;-72
2023/07/02 13:30:31;;;;;;;1.88;0.70;;;;;;;28.51;25.81;97092.06;10511089;28;20043;-72
2023/07/02 13:35:52;;;;;;;4.50;0.65;;;;;;;28.83;24.96;97087.28;10525039;28;20051;-72
2023/07/02 13:41:12;;;;;;;2.15;0.55;;;;;;;28.60;24.68;97084.03;10539727;28;20036;-72
2023/07/02 13:46:33;;;;;;;2.13;0.60;;;;;;;28.43;24.32;97092.88;10496917;28;20071;-72
2023/07/02 13:51:54;;;;;;;1.87;0.70;;;;;;;28.20;24.70;97092.44;10510467;28;20040;-72
2023/07/02 13:57:15;;;;;;;2.00;0.68;;;;;;;27.90;25.26;97089.94;10539567;28;20066;-73
2023/07/02 14:02:36;;;;;;;2.70;0.68;;;;;;;27.93;25.19;97099.91;10510341;28;20052;-72
2023/07/02 14:07:57;;;;;;;2.53;1.08;;;;;;;27.79;25.30;97094.31;10528240;28;20421;-72
2023/07/02 14:13:18;;;;;;;4.28;0.95;;;;;;;27.48;26.00;97102.50;10532625;28;20044;-72
2023/07/02 14:18:38;;;;;;;2.90;0.93;;;;;;;27.18;25.65;97120.69;10518275;28;20074;-72
2023/07/02 14:23:59;;;;;;;1.52;0.80;;;;;;;26.83;26.01;97120.91;10547306;28;20036;-72
2023/07/02 14:29:20;;;;;;;1.75;0.80;;;;;;;26.78;25.96;97105.19;10517796;28;20520;-72
2023/07/02 14:34:41;;;;;;;1.67;0.80;;;;;;;26.52;26.25;97115.34;10517765;28;20063;-72
2023/07/02 14:40:02;;;;;;;3.00;1.10;;;;;;;26.35;26.63;97099.69;10517360;28;20051;-73
2023/07/02 14:45:27;;;;;;;1.33;0.75;;;;;;;26.48;26.98;97115.38;10518481;28;20113;-73
2023/07/02 14:50:49;;;;;;;2.13;0.90;;;;;;;26.69;26.35;97115.25;10546454;28;20043;-72
2023/07/02 14:56:09;;;;;;;;;;;;;;;26.67;26.47;97115.28;10517432;28;20075;-73
2023/07/02 15:01:31;;;;;;;3.03;1.02;;;;;;;26.59;27.04;97126.78;10516491;28;19952;-73
2023/07/02 15:06:51;;;;;;;2.30;0.63;;;;;;;26.54;26.91;97126.09;10530369;28;20044;-73
2023/07/02 15:12:13;;;;;;;3.13;1.05;;;;;;;26.65;26.94;97133.19;10516199;28;20055;-73
2023/07/02 15:17:33;;;;;;;1.80;1.00;;;;;;;26.50;27.00;97135.41;10528792;28;20047;-73
2023/07/02 15:22:54;;;;;;;1.70;0.93;;;;;;;26.14;27.65;97139.09;10516096;28;20063;-73
2023/07/02 15:28:15;;;;;;;4.13;0.98;;;;;;;25.67;28.15;97147.03;10529940;28;20387;-73
2023/07/02 15:33:37;;;;;;;3.87;1.77;;;;;;;25.56;28.60;97149.19;10515689;28;20524;-74
2023/07/02 15:38:58;;;;;;;7.15;1.23;;;;;;;25.52;28.53;97145.66;10529296;28;20040;-74
2023/07/02 15:44:19;;;;;;;2.72;1.42;;;;;;;25.39;28.87;97154.22;10515086;28;20040;-74
2023/07/02 15:49:40;;;;;;;3.00;1.50;;;;;;;25.36;28.53;97147.06;10515038;28;20050;-73
2023/07/02 15:55:01;;;;;;;3.28;1.45;;;;;;;25.06;29.00;97156.34;10528682;28;20393;-74
2023/07/02 16:00:22;;;;;;;2.85;1.33;;;;;;;24.89;29.52;97154.84;10543496;28;20111;-74
2023/07/02 16:05:43;;;;;;;4.30;1.50;;;;;;;24.94;29.63;97170.59;10528134;28;20052;-74
2023/07/02 16:11:06;;;;;;;4.85;1.65;;;;;;;25.51;29.56;97167.06;10542938;28;20398;-73
2023/07/02 16:16:27;;;;;;;3.58;1.75;;;;;;;25.63;29.63;97164.91;10513971;28;20074;-74
2023/07/02 16:21:48;;;;;;;3.25;1.48;;;;;;;25.42;29.93;97177.78;10527366;28;20036;-74
2023/07/02 16:27:10;;;;;;;2.47;1.50;;;;;;;25.35;29.95;97159.22;10512722;28;20044;-74
2023/07/02 16:32:31;;;;;;;2.50;1.50;;;;;;;25.36;30.10;97164.22;10512801;28;20040;-73
2023/07/02 16:37:52;;;;;;;4.10;1.83;;;;;;;25.46;30.13;97171.34;10526882;28;20390;-74
2023/07/02 16:43:13;;;;;;;3.83;1.80;;;;;;;25.34;30.35;97172.78;10512842;28;20040;-74
2023/07/02 16:48:34;;;;;;;3.75;1.88;;;;;;;25.23;30.40;97182.06;10512614;28;20054;-74
2023/07/02 16:53:55;;;;;;;3.30;1.88;;;;;;;25.21;30.91;97171.38;10526472;28;20043;-74
2023/07/02 16:59:16;;;;;;;2.60;1.52;;;;;;;25.36;31.00;97181.34;10525961;28;20036;-74
2023/07/02 17:04:37;;;;;;;4.28;2.45;;;;;;;25.22;30.65;97189.22;10511375;28;20101;-74
2023/07/02 17:09:58;;;;;;;5.45;2.22;;;;;;;24.71;31.29;97192.66;10511700;28;20441;-74
2023/07/02 17:15:20;;;;;;;4.57;2.17;;;;;;;24.46;32.07;97200.41;10497714;28;20505;-74
2023/07/02 17:20:40;;;;;;;5.13;2.60;;;;;;;24.30;32.43;97205.28;10525515;28;20044;-74
2023/07/02 17:26:04;;;;;;;4.28;1.95;;;;;;;24.25;32.71;97208.13;10525358;28;20063;-74
2023/07/02 17:31:25;;;;;;;3.97;2.20;;;;;;;24.19;32.99;97213.06;10525417;28;20044;-75
2023/07/02 17:36:48;;;;;;;3.75;2.50;;;;;;;24.13;33.28;97208.06;10539836;28;20064;-74
2023/07/02 17:42:10;;;;;;;6.28;2.45;;;;;;;24.07;33.53;97210.16;10524281;28;20496;-74
2023/07/02 17:47:31;;;;;;;5.23;2.57;;;;;;;23.80;33.85;97207.13;10510631;28;20481;-74
2023/07/02 17:52:51;;;;;;;4.53;2.22;;;;;;;23.57;34.14;97206.22;10524617;28;20615;-74
2023/07/02 17:58:12;;;;;;;4.22;2.28;;;;;;;23.49;34.15;97206.16;10496724;28;20067;-74
2023/07/02 18:03:33;;;;;;;6.35;2.78;;;;;;;23.55;33.96;97223.31;10509836;28;20493;-74
2023/07/02 18:08:54;;;;;;;5.47;2.95;;;;;;;23.42;33.34;97218.91;10510333;28;20047;-75
2023/07/02 18:14:15;;;;;;;6.47;2.80;;;;;;;23.14;33.29;97240.00;10510163;28;20125;-74
2023/07/02 18:19:36;;;;;;;4.57;2.60;;;;;;;22.88;33.35;97241.88;10539089;28;20047;-75
2023/07/02 18:24:57;;;;;;;4.60;2.65;;;;;;;22.61;33.93;97243.66;10509877;28;20040;-75
2023/07/02 18:30:18;;;;;;;5.35;2.88;;;;;;;22.38;34.30;97237.69;10524110;28;20048;-75
2023/07/02 18:35:39;;;;;;;5.10;2.80;;;;;;;22.24;34.44;97234.66;10510244;28;20045;-75
2023/07/02 18:41:05;;;;;;;5.45;2.97;;;;;;;22.11;35.28;97233.06;10495829;28;20070;-75
2023/07/02 18:46:26;;;;;;;6.63;3.00;;;;;;;21.99;35.28;97231.44;10509734;28;20068;-74
2023/07/02 18:51:47;;;;;;;6.97;3.22;;;;;;;21.83;35.52;97239.72;10523467;28;20105;-75
2023/07/02 18:57:08;;;;;;;6.00;2.97;;;;;;;21.74;36.02;97240.28;10545940;28;20044;-75
2023/07/02 19:02:29;;;;;;;5.35;2.50;;;;;;;21.58;36.29;97247.13;10517103;28;20521;-73
2023/07/02 19:07:50;;;;;;;5.50;2.65;;;;;;;21.41;36.38;97253.94;10530475;28;20444;-75
2023/07/02 19:13:12;;;;;;;5.60;2.83;;;;;;;21.22;36.89;97240.81;10530386;28;20071;-75
2023/07/02 19:18:32;;;;;;;4.50;2.88;;;;;;;21.07;37.23;97248.34;10530030;28;20439;-74
2023/07/02 19:23:58;;;;;;;5.07;3.17;;;;;;;20.88;37.45;97246.56;10545129;28;20071;-74
2023/07/02 19:29:19;;;;;;;4.85;2.78;;;;;;;20.72;37.65;97256.19;10503229;28;20052;-74
2023/07/02 19:34:43;;;;;;;5.72;2.80;;;;;;;20.53;38.12;97257.22;10515541;28;20040;-74
2023/07/02 19:40:06;;;;;;;6.05;3.22;;;;;;;20.37;38.48;97268.22;10530028;28;20469;-74
2023/07/02 19:45:27;;;;;;;5.57;3.33;;;;;;;20.38;38.77;97281.69;10501286;28;20050;-74
2023/07/02 19:50:57;;;;;;;6.10;2.85;;;;;;;20.33;38.97;97279.44;10529089;28;20516;-75
2023/07/02 19:56:18;;;;;;;10.63;3.25;;;;;;;20.28;39.11;97279.34;10514785;28;20044;-74
2023/07/02 20:01:38;;;;;;;8.63;3.10;;;;;;;20.24;39.33;97282.09;10528180;28;20093;-74
2023/07/02 20:06:59;;;;;;;7.45;3.08;;;;;;;20.19;39.24;97285.53;10527299;28;20044;-74
2023/07/02 20:12:22;;;;;;;6.15;2.95;;;;;;;20.04;39.52;97287.28;10543113;28;20139;-74
2023/07/02 20:17:43;;;;;;;8.20;3.40;;;;;;;19.92;40.02;97293.41;10514215;28;20037;-74
2023/07/02 20:23:04;;;;;;;6.38;3.60;;;;;;;19.81;40.06;97297.38;10514241;28;20075;-74
2023/07/02 20:28:25;;;;;;;6.32;3.20;;;;;;;19.71;40.47;97297.88;10527409;28;20039;-74
2023/07/02 20:33:45;;;;;;;6.95;3.95;;;;;;;19.62;40.54;97304.72;10542185;28;20075;-74
2023/07/02 20:39:06;;;;;;;7.93;3.60;;;;;;;19.50;40.78;97295.16;10512832;28;20036;-74
2023/07/02 20:44:27;;;;;;;6.88;3.50;;;;;;;19.47;40.79;97300.03;10526508;28;20040;-74
2023/07/02 20:49:49;;;;;;;5.40;3.13;;;;;;;19.43;40.89;97303.50;10526798;28;20094;-74
2023/07/02 20:55:10;;;;;;;;;;;;;;;19.37;41.53;97308.28;10542149;28;20082;-74
2023/07/02 21:00:32;;;;;;;6.65;3.42;;;;;;;19.36;41.33;97315.31;10512446;28;20279;-74
2023/07/02 21:05:53;;;;;;;6.55;3.65;;;;;;;19.34;41.53;97316.00;10525933;28;20060;-74
2023/07/02 21:11:14;;;;;;;5.60;3.33;;;;;;;19.30;41.67;97321.56;10511868;28;20075;-74
2023/07/02 21:16:52;;;;;;;6.93;3.63;;;;;;;19.23;41.54;97327.72;10516480;28;20175;-74
2023/07/02 21:22:13;;;;;;;5.32;3.20;;;;;;;19.09;42.04;97323.09;10540594;28;20070;-74
2023/07/02 21:27:35;;;;;;;6.00;3.67;;;;;;;18.98;42.16;97327.03;10511284;28;20097;-73
2023/07/02 21:32:56;;;;;;;7.07;3.55;;;;;;;18.94;42.26;97338.25;10511910;28;20040;-73
2023/07/02 21:38:16;;;;;;;7.05;3.53;;;;;;;18.90;42.60;97340.94;10510967;28;20131;-73
2023/07/02 21:43:37;;;;;;;6.43;3.83;;;;;;;18.86;42.73;97338.72;10511056;28;20086;-74
2023/07/02 21:48:58;;;;;;;5.45;3.50;;;;;;;18.82;42.72;97337.91;10510825;28;20071;-74
2023/07/02 21:54:19;;;;;;;7.43;3.65;;;;;;;18.74;42.70;97349.69;10510581;28;20074;-74
2023/07/02 21:59:40;;;;;;;6.90;3.67;;;;;;;18.60;43.20;97344.31;10539715;28;20040;-74
2023/07/02 22:05:00;;;;;;;8.98;3.78;;;;;;;18.49;43.45;97347.50;10468638;28;20076;-75
2023/07/02 22:10:22;;;;;;;7.18;4.00;;;;;;;18.40;44.30;97343.69;10482870;28;20045;-75
2023/07/02 22:15:42;;;;;;;8.38;3.90;;;;;;;18.38;44.03;97349.28;10482531;28;20114;-74
2023/07/02 22:21:06;;;;;;;7.65;4.40;;;;;;;18.45;44.24;97353.03;10482490;28;20094;-75
2023/07/02 22:26:26;;;;;;;7.38;4.47;;;;;;;18.47;44.12;97350.25;10482388;28;20129;-74
2023/07/02 22:31:47;;;;;;;9.90;4.40;;;;;;;18.40;44.25;97354.28;10490337;28;20113;-74
2023/07/02 22:37:07;;;;;;;11.45;5.13;;;;;;;18.36;44.55;97352.06;10503921;28;20159;-75
2023/07/02 22:42:28;;;;;;;11.55;5.00;;;;;;;18.28;44.58;97360.28;10504645;28;20558;-74
2023/07/02 22:47:49;;;;;;;9.68;4.93;;;;;;;18.18;44.87;97359.97;10504717;28;20083;-74
2023/07/02 22:53:10;;;;;;;10.65;4.72;;;;;;;18.08;45.00;97359.63;10489404;28;20121;-74
2023/07/02 22:58:30;;;;;;;9.85;5.40;;;;;;;17.96;45.12;97355.03;10504203;28;20402;-74
2023/07/02 23:03:51;;;;;;;8.85;4.85;;;;;;;17.88;45.60;97357.59;10514629;28;20145;-74
2023/07/02 23:09:12;;;;;;;10.30;6.10;;;;;;;17.79;45.58;97355.88;10516865;28;20116;-74
2023/07/02 23:14:33;;;;;;;10.32;5.82;;;;;;;17.71;45.66;97352.78;10545562;28;20119;-74
2023/07/02 23:19:53;;;;;;;12.05;6.07;;;;;;;17.61;46.01;97363.72;10516021;28;20119;-74
2023/07/02 23:25:17;;;;;;;15.57;6.10;;;;;;;17.51;46.09;97352.81;10516257;28;20048;-73
2023/07/02 23:30:38;;;;;;;12.75;6.63;;;;;;;17.40;46.29;97351.03;10544770;28;20509;-75
2023/07/02 23:35:59;;;;;;;10.77;5.97;;;;;;;17.30;46.52;97350.66;10544866;28;20051;-73
2023/07/02 23:41:20;;;;;;;14.40;7.10;;;;;;;17.21;47.04;97349.66;10529823;28;20079;-74
2023/07/02 23:46:43;;;;;;;13.57;7.40;;;;;;;17.12;47.15;97337.38;10530586;28;20063;-74
2023/07/02 23:52:04;;;;;;;13.75;7.07;;;;;;;17.05;47.27;97338.50;10514798;28;20072;-73
2023/07/02 23:57:24;;;;;;;14.48;7.75;;;;;;;17.03;47.34;97334.91;10514651;28;20063;-73
